sensor_id;sensor_type;location;lat;lon;timestamp;temperature;humidity
22787;DHT22;63134;52.020;4.714;2023-02-21T00:02:56;10.50;96.60
22787;DHT22;63134;52.020;4.714;2023-02-21T00:05:59;10.50;96.70
22787;DHT22;63134;52.020;4.714;2023-02-21T00:09:06;10.50;96.70
22787;DHT22;63134;52.020;4.714;2023-02-21T00:12:10;10.50;96.80
22787;DHT22;63134;52.020;4.714;2023-02-21T00:15:14;10.50;96.80
22787;DHT22;63134;52.020;4.714;2023-02-21T00:18:18;10.50;96.80
22787;DHT22;63134;52.020;4.714;2023-02-21T00:21:23;10.50;96.80
22787;DHT22;63134;52.020;4.714;2023-02-21T00:24:27;10.50;96.80
22787;DHT22;63134;52.020;4.714;2023-02-21T00:27:31;10.50;96.70
22787;DHT22;63134;52.020;4.714;2023-02-21T00:30:35;10.50;96.80
22787;DHT22;63134;52.020;4.714;2023-02-21T00:33:41;10.50;97.20
22787;DHT22;63134;52.020;4.714;2023-02-21T00:36:46;10.50;96.70
22787;DHT22;63134;52.020;4.714;2023-02-21T00:39:50;10.50;96.80
22787;DHT22;63134;52.020;4.714;2023-02-21T00:42:56;10.50;96.90
22787;DHT22;63134;52.020;4.714;2023-02-21T00:45:59;10.50;96.80
22787;DHT22;63134;52.020;4.714;2023-02-21T00:49:04;10.50;96.70
22787;DHT22;63134;52.020;4.714;2023-02-21T00:52:12;10.50;96.90
22787;DHT22;63134;52.020;4.714;2023-02-21T00:55:20;10.50;96.80
22787;DHT22;63134;52.020;4.714;2023-02-21T00:58:24;10.50;96.80
22787;DHT22;63134;52.020;4.714;2023-02-21T01:01:28;10.50;96.70
22787;DHT22;63134;52.020;4.714;2023-02-21T01:04:32;10.50;96.90
22787;DHT22;63134;52.020;4.714;2023-02-21T01:07:37;10.50;97.00
22787;DHT22;63134;52.020;4.714;2023-02-21T01:10:44;10.50;96.90
22787;DHT22;63134;52.020;4.714;2023-02-21T01:13:48;10.50;97.00
22787;DHT22;63134;52.020;4.714;2023-02-21T01:16:55;10.50;97.10
22787;DHT22;63134;52.020;4.714;2023-02-21T01:20:00;10.50;96.90
22787;DHT22;63134;52.020;4.714;2023-02-21T01:23:03;10.50;96.90
22787;DHT22;63134;52.020;4.714;2023-02-21T01:26:08;10.50;96.90
22787;DHT22;63134;52.020;4.714;2023-02-21T01:29:15;10.50;97.00
22787;DHT22;63134;52.020;4.714;2023-02-21T01:32:19;10.50;97.00
22787;DHT22;63134;52.020;4.714;2023-02-21T01:35:22;10.50;97.00
22787;DHT22;63134;52.020;4.714;2023-02-21T01:38:27;10.50;97.00
22787;DHT22;63134;52.020;4.714;2023-02-21T01:41:30;10.50;96.90
22787;DHT22;63134;52.020;4.714;2023-02-21T01:44:42;10.60;97.00
22787;DHT22;63134;52.020;4.714;2023-02-21T01:47:46;10.60;97.00
22787;DHT22;63134;52.020;4.714;2023-02-21T01:50:52;10.60;96.90
22787;DHT22;63134;52.020;4.714;2023-02-21T01:53:57;10.60;97.10
22787;DHT22;63134;52.020;4.714;2023-02-21T01:57:03;10.60;97.00
22787;DHT22;63134;52.020;4.714;2023-02-21T02:00:12;10.60;96.90
22787;DHT22;63134;52.020;4.714;2023-02-21T02:03:18;10.50;96.90
22787;DHT22;63134;52.020;4.714;2023-02-21T02:06:23;10.50;97.10
22787;DHT22;63134;52.020;4.714;2023-02-21T02:09:26;10.60;97.20
22787;DHT22;63134;52.020;4.714;2023-02-21T02:13:01;10.50;97.20
22787;DHT22;63134;52.020;4.714;2023-02-21T02:22:07;10.60;97.10
22787;DHT22;63134;52.020;4.714;2023-02-21T02:34:48;10.60;97.20
22787;DHT22;63134;52.020;4.714;2023-02-21T02:37:59;10.60;97.30
22787;DHT22;63134;52.020;4.714;2023-02-21T02:44:17;10.60;97.10
22787;DHT22;63134;52.020;4.714;2023-02-21T02:47:06;10.60;97.20
22787;DHT22;63134;52.020;4.714;2023-02-21T02:49:57;10.60;97.10
22787;DHT22;63134;52.020;4.714;2023-02-21T02:52:52;10.70;97.20
22787;DHT22;63134;52.020;4.714;2023-02-21T02:55:45;10.70;97.30
22787;DHT22;63134;52.020;4.714;2023-02-21T02:58:41;10.70;97.30
22787;DHT22;63134;52.020;4.714;2023-02-21T03:08:13;10.80;97.30
22787;DHT22;63134;52.020;4.714;2023-02-21T03:11:22;10.70;97.10
22787;DHT22;63134;52.020;4.714;2023-02-21T03:14:14;10.80;97.30
22787;DHT22;63134;52.020;4.714;2023-02-21T03:17:03;10.80;97.10
22787;DHT22;63134;52.020;4.714;2023-02-21T03:19:53;10.80;97.20
22787;DHT22;63134;52.020;4.714;2023-02-21T03:22:42;10.80;97.10
22787;DHT22;63134;52.020;4.714;2023-02-21T03:25:33;10.80;96.90
22787;DHT22;63134;52.020;4.714;2023-02-21T03:28:21;10.70;96.90
22787;DHT22;63134;52.020;4.714;2023-02-21T03:31:08;10.70;96.90
22787;DHT22;63134;52.020;4.714;2023-02-21T03:33:54;10.70;96.90
22787;DHT22;63134;52.020;4.714;2023-02-21T03:36:40;10.70;97.00
22787;DHT22;63134;52.020;4.714;2023-02-21T03:39:28;10.70;97.30
22787;DHT22;63134;52.020;4.714;2023-02-21T03:42:15;10.60;97.00
22787;DHT22;63134;52.020;4.714;2023-02-21T03:45:01;10.70;97.10
22787;DHT22;63134;52.020;4.714;2023-02-21T03:47:49;10.70;97.10
22787;DHT22;63134;52.020;4.714;2023-02-21T03:50:35;10.70;97.10
22787;DHT22;63134;52.020;4.714;2023-02-21T03:53:20;10.70;97.00
22787;DHT22;63134;52.020;4.714;2023-02-21T03:56:06;10.70;97.10
22787;DHT22;63134;52.020;4.714;2023-02-21T03:59:15;10.60;97.10
22787;DHT22;63134;52.020;4.714;2023-02-21T04:02:00;10.70;97.30
22787;DHT22;63134;52.020;4.714;2023-02-21T04:04:49;10.70;97.10
22787;DHT22;63134;52.020;4.714;2023-02-21T04:07:36;10.70;96.90
22787;DHT22;63134;52.020;4.714;2023-02-21T04:10:23;10.60;97.00
22787;DHT22;63134;52.020;4.714;2023-02-21T04:13:08;10.60;97.00
22787;DHT22;63134;52.020;4.714;2023-02-21T04:16:00;10.60;97.00
22787;DHT22;63134;52.020;4.714;2023-02-21T04:18:46;10.60;97.10
22787;DHT22;63134;52.020;4.714;2023-02-21T04:21:33;10.60;97.20
22787;DHT22;63134;52.020;4.714;2023-02-21T04:24:19;10.60;97.20
22787;DHT22;63134;52.020;4.714;2023-02-21T04:27:05;10.70;97.20
22787;DHT22;63134;52.020;4.714;2023-02-21T04:29:53;10.60;97.20
22787;DHT22;63134;52.020;4.714;2023-02-21T04:32:39;10.60;97.10
22787;DHT22;63134;52.020;4.714;2023-02-21T04:35:30;10.60;97.20
22787;DHT22;63134;52.020;4.714;2023-02-21T04:38:20;10.60;97.10
22787;DHT22;63134;52.020;4.714;2023-02-21T04:41:05;10.60;97.20
22787;DHT22;63134;52.020;4.714;2023-02-21T04:43:55;10.60;97.30
22787;DHT22;63134;52.020;4.714;2023-02-21T04:46:43;10.60;97.30
22787;DHT22;63134;52.020;4.714;2023-02-21T04:49:37;10.60;97.30
22787;DHT22;63134;52.020;4.714;2023-02-21T04:52:25;10.60;97.40
22787;DHT22;63134;52.020;4.714;2023-02-21T04:55:10;10.60;97.50
22787;DHT22;63134;52.020;4.714;2023-02-21T04:57:56;10.60;97.50
22787;DHT22;63134;52.020;4.714;2023-02-21T05:00:41;10.60;97.50
22787;DHT22;63134;52.020;4.714;2023-02-21T05:03:27;10.60;97.40
22787;DHT22;63134;52.020;4.714;2023-02-21T05:06:21;10.50;97.40
22787;DHT22;63134;52.020;4.714;2023-02-21T05:09:06;10.50;97.50
22787;DHT22;63134;52.020;4.714;2023-02-21T05:11:52;10.60;97.50
22787;DHT22;63134;52.020;4.714;2023-02-21T05:14:38;10.60;97.60
22787;DHT22;63134;52.020;4.714;2023-02-21T05:17:23;10.60;97.60
22787;DHT22;63134;52.020;4.714;2023-02-21T05:20:09;10.60;97.50
22787;DHT22;63134;52.020;4.714;2023-02-21T05:22:55;10.60;97.80
22787;DHT22;63134;52.020;4.714;2023-02-21T05:26:10;10.60;97.50
22787;DHT22;63134;52.020;4.714;2023-02-21T05:29:00;10.60;97.50
22787;DHT22;63134;52.020;4.714;2023-02-21T05:31:47;10.60;97.50
22787;DHT22;63134;52.020;4.714;2023-02-21T05:34:32;10.60;97.50
22787;DHT22;63134;52.020;4.714;2023-02-21T05:37:18;10.60;97.50
22787;DHT22;63134;52.020;4.714;2023-02-21T05:40:05;10.60;97.60
22787;DHT22;63134;52.020;4.714;2023-02-21T05:42:57;10.70;97.60
22787;DHT22;63134;52.020;4.714;2023-02-21T05:45:43;10.60;97.50
22787;DHT22;63134;52.020;4.714;2023-02-21T05:48:28;10.60;97.40
22787;DHT22;63134;52.020;4.714;2023-02-21T05:51:14;10.60;97.60
22787;DHT22;63134;52.020;4.714;2023-02-21T05:54:00;10.60;97.60
22787;DHT22;63134;52.020;4.714;2023-02-21T05:56:47;10.60;97.70
22787;DHT22;63134;52.020;4.714;2023-02-21T05:59:33;10.70;97.70
22787;DHT22;63134;52.020;4.714;2023-02-21T06:02:18;10.70;97.50
22787;DHT22;63134;52.020;4.714;2023-02-21T06:05:04;10.70;97.70
22787;DHT22;63134;52.020;4.714;2023-02-21T06:07:50;10.70;97.50
22787;DHT22;63134;52.020;4.714;2023-02-21T06:10:37;10.70;97.50
22787;DHT22;63134;52.020;4.714;2023-02-21T06:13:22;10.70;97.40
22787;DHT22;63134;52.020;4.714;2023-02-21T06:16:08;10.70;97.50
22787;DHT22;63134;52.020;4.714;2023-02-21T06:18:55;10.70;97.70
22787;DHT22;63134;52.020;4.714;2023-02-21T06:21:42;10.80;97.60
22787;DHT22;63134;52.020;4.714;2023-02-21T06:24:27;10.80;97.30
22787;DHT22;63134;52.020;4.714;2023-02-21T06:27:13;10.70;97.20
22787;DHT22;63134;52.020;4.714;2023-02-21T06:29:59;10.70;97.30
22787;DHT22;63134;52.020;4.714;2023-02-21T06:32:48;10.70;97.40
22787;DHT22;63134;52.020;4.714;2023-02-21T06:35:34;10.70;97.30
22787;DHT22;63134;52.020;4.714;2023-02-21T06:38:19;10.70;97.40
22787;DHT22;63134;52.020;4.714;2023-02-21T06:41:07;10.70;97.30
22787;DHT22;63134;52.020;4.714;2023-02-21T06:43:55;10.70;97.30
22787;DHT22;63134;52.020;4.714;2023-02-21T06:46:42;10.70;97.40
22787;DHT22;63134;52.020;4.714;2023-02-21T06:49:30;10.70;97.20
22787;DHT22;63134;52.020;4.714;2023-02-21T06:52:17;10.70;97.20
22787;DHT22;63134;52.020;4.714;2023-02-21T06:55:03;10.70;97.70
22787;DHT22;63134;52.020;4.714;2023-02-21T06:57:49;10.70;97.20
22787;DHT22;63134;52.020;4.714;2023-02-21T07:00:35;10.70;97.20
22787;DHT22;63134;52.020;4.714;2023-02-21T07:03:20;10.70;97.60
22787;DHT22;63134;52.020;4.714;2023-02-21T07:06:06;10.70;97.30
22787;DHT22;63134;52.020;4.714;2023-02-21T07:08:51;10.70;97.30
22787;DHT22;63134;52.020;4.714;2023-02-21T07:11:37;10.70;97.30
22787;DHT22;63134;52.020;4.714;2023-02-21T07:14:22;10.70;97.30
22787;DHT22;63134;52.020;4.714;2023-02-21T07:17:08;10.80;97.30
22787;DHT22;63134;52.020;4.714;2023-02-21T07:19:53;10.70;97.30
22787;DHT22;63134;52.020;4.714;2023-02-21T07:22:38;10.80;97.40
22787;DHT22;63134;52.020;4.714;2023-02-21T07:25:26;10.80;97.40
22787;DHT22;63134;52.020;4.714;2023-02-21T07:28:19;10.80;97.30
22787;DHT22;63134;52.020;4.714;2023-02-21T07:31:04;10.90;97.50
22787;DHT22;63134;52.020;4.714;2023-02-21T07:33:50;10.90;97.10
22787;DHT22;63134;52.020;4.714;2023-02-21T07:36:36;10.90;97.50
22787;DHT22;63134;52.020;4.714;2023-02-21T07:39:24;10.90;97.20
22787;DHT22;63134;52.020;4.714;2023-02-21T07:42:15;10.90;97.20
22787;DHT22;63134;52.020;4.714;2023-02-21T07:45:04;10.90;97.10
22787;DHT22;63134;52.020;4.714;2023-02-21T07:47:55;10.90;96.80
22787;DHT22;63134;52.020;4.714;2023-02-21T07:50:42;10.90;97.10
22787;DHT22;63134;52.020;4.714;2023-02-21T07:53:28;10.90;97.10
22787;DHT22;63134;52.020;4.714;2023-02-21T07:56:14;11.00;97.30
22787;DHT22;63134;52.020;4.714;2023-02-21T07:59:02;10.90;96.90
22787;DHT22;63134;52.020;4.714;2023-02-21T08:01:48;11.00;96.90
22787;DHT22;63134;52.020;4.714;2023-02-21T08:04:34;11.00;96.90
22787;DHT22;63134;52.020;4.714;2023-02-21T08:07:19;11.00;97.00
22787;DHT22;63134;52.020;4.714;2023-02-21T08:10:07;11.00;96.90
22787;DHT22;63134;52.020;4.714;2023-02-21T08:12:53;11.00;97.00
22787;DHT22;63134;52.020;4.714;2023-02-21T08:15:38;11.00;96.80
22787;DHT22;63134;52.020;4.714;2023-02-21T08:18:37;11.00;96.70
22787;DHT22;63134;52.020;4.714;2023-02-21T08:21:26;11.00;96.90
22787;DHT22;63134;52.020;4.714;2023-02-21T08:24:12;11.00;96.90
22787;DHT22;63134;52.020;4.714;2023-02-21T08:26:58;11.10;97.10
22787;DHT22;63134;52.020;4.714;2023-02-21T08:29:44;11.10;96.60
22787;DHT22;63134;52.020;4.714;2023-02-21T08:32:29;11.10;96.70
22787;DHT22;63134;52.020;4.714;2023-02-21T08:35:17;11.10;96.90
22787;DHT22;63134;52.020;4.714;2023-02-21T08:38:03;11.10;96.70
22787;DHT22;63134;52.020;4.714;2023-02-21T08:40:51;11.10;96.60
22787;DHT22;63134;52.020;4.714;2023-02-21T08:43:38;11.00;96.50
22787;DHT22;63134;52.020;4.714;2023-02-21T08:46:23;11.10;96.50
22787;DHT22;63134;52.020;4.714;2023-02-21T08:49:10;11.00;96.50
22787;DHT22;63134;52.020;4.714;2023-02-21T08:51:55;11.10;97.00
22787;DHT22;63134;52.020;4.714;2023-02-21T08:54:42;11.10;96.60
22787;DHT22;63134;52.020;4.714;2023-02-21T08:57:27;11.10;96.60
22787;DHT22;63134;52.020;4.714;2023-02-21T09:00:14;11.20;96.60
22787;DHT22;63134;52.020;4.714;2023-02-21T09:03:00;11.10;96.40
22787;DHT22;63134;52.020;4.714;2023-02-21T09:05:46;11.20;96.60
22787;DHT22;63134;52.020;4.714;2023-02-21T09:08:31;11.20;96.50
22787;DHT22;63134;52.020;4.714;2023-02-21T09:11:17;11.20;96.40
22787;DHT22;63134;52.020;4.714;2023-02-21T09:14:06;11.20;96.40
22787;DHT22;63134;52.020;4.714;2023-02-21T09:16:56;11.30;96.20
22787;DHT22;63134;52.020;4.714;2023-02-21T09:19:41;11.30;96.30
22787;DHT22;63134;52.020;4.714;2023-02-21T09:22:28;11.30;96.30
22787;DHT22;63134;52.020;4.714;2023-02-21T09:25:18;11.30;96.20
22787;DHT22;63134;52.020;4.714;2023-02-21T09:28:04;11.30;96.20
22787;DHT22;63134;52.020;4.714;2023-02-21T09:30:50;11.30;96.20
22787;DHT22;63134;52.020;4.714;2023-02-21T09:33:36;11.30;96.30
22787;DHT22;63134;52.020;4.714;2023-02-21T09:36:25;11.40;96.60
22787;DHT22;63134;52.020;4.714;2023-02-21T09:39:11;11.50;96.60
22787;DHT22;63134;52.020;4.714;2023-02-21T09:41:57;11.60;96.30
22787;DHT22;63134;52.020;4.714;2023-02-21T09:44:43;11.50;96.20
22787;DHT22;63134;52.020;4.714;2023-02-21T09:47:32;11.50;95.80
22787;DHT22;63134;52.020;4.714;2023-02-21T09:50:25;11.40;95.90
22787;DHT22;63134;52.020;4.714;2023-02-21T09:53:26;11.50;95.80
22787;DHT22;63134;52.020;4.714;2023-02-21T09:59:02;11.40;95.80
22787;DHT22;63134;52.020;4.714;2023-02-21T10:14:28;11.50;96.10
22787;DHT22;63134;52.020;4.714;2023-02-21T10:20:50;11.50;95.80
22787;DHT22;63134;52.020;4.714;2023-02-21T10:23:47;11.50;95.80
22787;DHT22;63134;52.020;4.714;2023-02-21T10:26:36;11.50;96.10
22787;DHT22;63134;52.020;4.714;2023-02-21T10:30:00;11.50;95.90
22787;DHT22;63134;52.020;4.714;2023-02-21T10:32:49;11.50;95.90
22787;DHT22;63134;52.020;4.714;2023-02-21T10:35:36;11.40;95.70
22787;DHT22;63134;52.020;4.714;2023-02-21T10:38:25;11.40;95.70
22787;DHT22;63134;52.020;4.714;2023-02-21T10:41:14;11.40;95.70
22787;DHT22;63134;52.020;4.714;2023-02-21T10:44:08;11.40;95.80
22787;DHT22;63134;52.020;4.714;2023-02-21T10:47:02;11.40;95.80
22787;DHT22;63134;52.020;4.714;2023-02-21T10:50:02;11.40;95.70
22787;DHT22;63134;52.020;4.714;2023-02-21T10:52:50;11.40;95.50
22787;DHT22;63134;52.020;4.714;2023-02-21T10:55:35;11.30;95.60
22787;DHT22;63134;52.020;4.714;2023-02-21T10:58:26;11.30;95.70
22787;DHT22;63134;52.020;4.714;2023-02-21T11:01:31;11.20;95.60
22787;DHT22;63134;52.020;4.714;2023-02-21T11:04:22;11.20;95.50
22787;DHT22;63134;52.020;4.714;2023-02-21T11:07:15;11.20;95.60
22787;DHT22;63134;52.020;4.714;2023-02-21T11:10:01;11.20;95.70
22787;DHT22;63134;52.020;4.714;2023-02-21T11:16:15;11.10;95.80
22787;DHT22;63134;52.020;4.714;2023-02-21T11:19:06;11.20;95.80
22787;DHT22;63134;52.020;4.714;2023-02-21T11:21:55;11.20;96.00
22787;DHT22;63134;52.020;4.714;2023-02-21T11:25:15;11.20;96.00
22787;DHT22;63134;52.020;4.714;2023-02-21T11:34:04;11.20;96.60
22787;DHT22;63134;52.020;4.714;2023-02-21T11:36:50;11.20;96.60
22787;DHT22;63134;52.020;4.714;2023-02-21T11:39:36;11.20;96.60
22787;DHT22;63134;52.020;4.714;2023-02-21T11:42:29;11.20;96.60
22787;DHT22;63134;52.020;4.714;2023-02-21T11:45:28;11.20;96.70
22787;DHT22;63134;52.020;4.714;2023-02-21T11:48:15;11.30;96.90
22787;DHT22;63134;52.020;4.714;2023-02-21T11:51:07;11.30;96.60
22787;DHT22;63134;52.020;4.714;2023-02-21T11:53:58;11.30;96.60
22787;DHT22;63134;52.020;4.714;2023-02-21T11:56:57;11.30;96.60
22787;DHT22;63134;52.020;4.714;2023-02-21T12:00:07;11.30;96.70
22787;DHT22;63134;52.020;4.714;2023-02-21T12:03:31;11.30;96.70
22787;DHT22;63134;52.020;4.714;2023-02-21T12:06:40;11.30;96.40
22787;DHT22;63134;52.020;4.714;2023-02-21T12:09:54;11.30;96.50
22787;DHT22;63134;52.020;4.714;2023-02-21T12:15:46;11.40;96.70
22787;DHT22;63134;52.020;4.714;2023-02-21T12:28:29;11.50;96.10
22787;DHT22;63134;52.020;4.714;2023-02-21T12:34:36;11.50;96.10
22787;DHT22;63134;52.020;4.714;2023-02-21T12:41:04;11.60;96.40
22787;DHT22;63134;52.020;4.714;2023-02-21T12:44:13;11.60;95.90
22787;DHT22;63134;52.020;4.714;2023-02-21T12:47:11;11.50;95.60
22787;DHT22;63134;52.020;4.714;2023-02-21T12:50:22;11.50;95.80
22787;DHT22;63134;52.020;4.714;2023-02-21T12:53:13;11.50;95.60
22787;DHT22;63134;52.020;4.714;2023-02-21T12:59:23;11.40;95.50
22787;DHT22;63134;52.020;4.714;2023-02-21T13:05:38;11.50;95.50
22787;DHT22;63134;52.020;4.714;2023-02-21T13:08:33;11.50;95.50
22787;DHT22;63134;52.020;4.714;2023-02-21T13:14:59;11.40;95.30
22787;DHT22;63134;52.020;4.714;2023-02-21T13:17:57;11.40;95.20
22787;DHT22;63134;52.020;4.714;2023-02-21T13:20:53;11.30;94.70
22787;DHT22;63134;52.020;4.714;2023-02-21T13:33:25;11.10;94.90
22787;DHT22;63134;52.020;4.714;2023-02-21T13:39:16;11.10;95.10
22787;DHT22;63134;52.020;4.714;2023-02-21T13:42:09;11.10;95.20
22787;DHT22;63134;52.020;4.714;2023-02-21T13:45:18;11.10;95.00
22787;DHT22;63134;52.020;4.714;2023-02-21T13:50:59;11.00;95.10
22787;DHT22;63134;52.020;4.714;2023-02-21T13:54:23;11.00;94.90
22787;DHT22;63134;52.020;4.714;2023-02-21T13:57:29;11.00;95.20
22787;DHT22;63134;52.020;4.714;2023-02-21T14:11:58;11.00;94.80
22787;DHT22;63134;52.020;4.714;2023-02-21T14:14:48;11.00;94.70
22787;DHT22;63134;52.020;4.714;2023-02-21T14:17:37;11.00;94.70
22787;DHT22;63134;52.020;4.714;2023-02-21T14:20:24;11.00;94.80
22787;DHT22;63134;52.020;4.714;2023-02-21T14:23:14;11.00;94.60
22787;DHT22;63134;52.020;4.714;2023-02-21T14:26:03;11.00;94.10
22787;DHT22;63134;52.020;4.714;2023-02-21T14:35:21;11.00;94.00
22787;DHT22;63134;52.020;4.714;2023-02-21T14:38:29;10.90;93.80
22787;DHT22;63134;52.020;4.714;2023-02-21T14:57:15;10.60;93.80
22787;DHT22;63134;52.020;4.714;2023-02-21T15:04:30;10.50;93.90
22787;DHT22;63134;52.020;4.714;2023-02-21T15:10:39;10.50;93.90
22787;DHT22;63134;52.020;4.714;2023-02-21T15:13:31;10.50;94.10
22787;DHT22;63134;52.020;4.714;2023-02-21T15:16:20;10.50;94.20
22787;DHT22;63134;52.020;4.714;2023-02-21T15:19:05;10.50;94.10
22787;DHT22;63134;52.020;4.714;2023-02-21T15:22:13;10.50;93.80
22787;DHT22;63134;52.020;4.714;2023-02-21T15:27:58;10.50;93.80
22787;DHT22;63134;52.020;4.714;2023-02-21T15:33:51;10.40;93.90
22787;DHT22;63134;52.020;4.714;2023-02-21T15:36:42;10.40;93.80
22787;DHT22;63134;52.020;4.714;2023-02-21T15:39:38;10.50;93.90
22787;DHT22;63134;52.020;4.714;2023-02-21T15:42:26;10.50;93.70
22787;DHT22;63134;52.020;4.714;2023-02-21T15:45:29;10.40;93.40
22787;DHT22;63134;52.020;4.714;2023-02-21T15:48:16;10.40;93.60
22787;DHT22;63134;52.020;4.714;2023-02-21T15:51:03;10.40;93.80
22787;DHT22;63134;52.020;4.714;2023-02-21T15:54:31;10.40;93.90
22787;DHT22;63134;52.020;4.714;2023-02-21T15:57:21;10.40;93.90
22787;DHT22;63134;52.020;4.714;2023-02-21T16:00:26;10.40;93.90
22787;DHT22;63134;52.020;4.714;2023-02-21T16:06:25;10.40;93.70
22787;DHT22;63134;52.020;4.714;2023-02-21T16:09:26;10.40;93.60
22787;DHT22;63134;52.020;4.714;2023-02-21T16:18:16;10.30;94.00
22787;DHT22;63134;52.020;4.714;2023-02-21T16:21:06;10.30;93.90
22787;DHT22;63134;52.020;4.714;2023-02-21T16:23:52;10.20;94.10
22787;DHT22;63134;52.020;4.714;2023-02-21T16:26:38;10.30;94.10
22787;DHT22;63134;52.020;4.714;2023-02-21T16:29:23;10.30;94.00
22787;DHT22;63134;52.020;4.714;2023-02-21T16:32:16;10.20;94.00
22787;DHT22;63134;52.020;4.714;2023-02-21T16:35:04;10.20;94.30
22787;DHT22;63134;52.020;4.714;2023-02-21T16:37:57;10.20;94.30
22787;DHT22;63134;52.020;4.714;2023-02-21T16:40:43;10.20;94.20
22787;DHT22;63134;52.020;4.714;2023-02-21T16:43:32;10.20;94.60
22787;DHT22;63134;52.020;4.714;2023-02-21T16:46:25;10.20;94.10
22787;DHT22;63134;52.020;4.714;2023-02-21T16:49:14;10.20;94.10
22787;DHT22;63134;52.020;4.714;2023-02-21T16:52:01;10.20;94.30
22787;DHT22;63134;52.020;4.714;2023-02-21T16:54:47;10.10;94.50
22787;DHT22;63134;52.020;4.714;2023-02-21T16:57:35;10.10;94.70
22787;DHT22;63134;52.020;4.714;2023-02-21T17:00:20;10.10;94.70
22787;DHT22;63134;52.020;4.714;2023-02-21T17:03:06;10.10;94.70
22787;DHT22;63134;52.020;4.714;2023-02-21T17:05:52;10.10;94.80
22787;DHT22;63134;52.020;4.714;2023-02-21T17:08:37;10.10;94.90
22787;DHT22;63134;52.020;4.714;2023-02-21T17:11:24;10.10;94.90
22787;DHT22;63134;52.020;4.714;2023-02-21T17:14:09;10.10;94.80
22787;DHT22;63134;52.020;4.714;2023-02-21T17:17:01;10.10;94.70
22787;DHT22;63134;52.020;4.714;2023-02-21T17:19:49;10.10;94.60
22787;DHT22;63134;52.020;4.714;2023-02-21T17:22:35;10.10;94.70
22787;DHT22;63134;52.020;4.714;2023-02-21T17:25:21;10.00;94.40
22787;DHT22;63134;52.020;4.714;2023-02-21T17:28:07;10.00;94.60
22787;DHT22;63134;52.020;4.714;2023-02-21T17:30:52;10.00;94.70
22787;DHT22;63134;52.020;4.714;2023-02-21T17:33:42;9.90;94.60
22787;DHT22;63134;52.020;4.714;2023-02-21T17:36:28;9.90;94.70
22787;DHT22;63134;52.020;4.714;2023-02-21T17:39:19;9.90;94.80
22787;DHT22;63134;52.020;4.714;2023-02-21T17:42:07;9.90;94.70
22787;DHT22;63134;52.020;4.714;2023-02-21T17:44:55;9.90;94.80
22787;DHT22;63134;52.020;4.714;2023-02-21T17:47:47;9.90;94.70
22787;DHT22;63134;52.020;4.714;2023-02-21T17:50:33;9.80;94.70
22787;DHT22;63134;52.020;4.714;2023-02-21T17:53:18;9.80;94.70
22787;DHT22;63134;52.020;4.714;2023-02-21T17:56:04;9.80;94.70
22787;DHT22;63134;52.020;4.714;2023-02-21T17:58:50;9.80;94.90
22787;DHT22;63134;52.020;4.714;2023-02-21T18:01:36;9.80;94.80
22787;DHT22;63134;52.020;4.714;2023-02-21T18:04:21;9.80;94.90
22787;DHT22;63134;52.020;4.714;2023-02-21T18:07:07;9.90;94.70
22787;DHT22;63134;52.020;4.714;2023-02-21T18:09:55;9.90;94.90
22787;DHT22;63134;52.020;4.714;2023-02-21T18:12:41;9.80;94.70
22787;DHT22;63134;52.020;4.714;2023-02-21T18:15:26;9.90;94.80
22787;DHT22;63134;52.020;4.714;2023-02-21T18:18:15;9.90;94.90
22787;DHT22;63134;52.020;4.714;2023-02-21T18:21:00;9.90;94.70
22787;DHT22;63134;52.020;4.714;2023-02-21T18:23:46;9.90;94.60
22787;DHT22;63134;52.020;4.714;2023-02-21T18:26:38;9.80;94.60
22787;DHT22;63134;52.020;4.714;2023-02-21T18:29:26;9.80;94.70
22787;DHT22;63134;52.020;4.714;2023-02-21T18:32:14;9.80;94.80
22787;DHT22;63134;52.020;4.714;2023-02-21T18:35:01;9.80;94.70
22787;DHT22;63134;52.020;4.714;2023-02-21T18:37:49;9.80;94.90
22787;DHT22;63134;52.020;4.714;2023-02-21T18:40:35;9.80;95.00
22787;DHT22;63134;52.020;4.714;2023-02-21T18:43:29;9.80;94.90
22787;DHT22;63134;52.020;4.714;2023-02-21T18:46:19;9.80;94.90
22787;DHT22;63134;52.020;4.714;2023-02-21T18:49:04;9.70;95.00
22787;DHT22;63134;52.020;4.714;2023-02-21T18:51:51;9.70;95.10
22787;DHT22;63134;52.020;4.714;2023-02-21T18:54:44;9.70;95.10
22787;DHT22;63134;52.020;4.714;2023-02-21T18:57:33;9.80;95.30
22787;DHT22;63134;52.020;4.714;2023-02-21T19:00:22;9.80;95.10
22787;DHT22;63134;52.020;4.714;2023-02-21T19:03:12;9.70;95.20
22787;DHT22;63134;52.020;4.714;2023-02-21T19:05:58;9.70;95.00
22787;DHT22;63134;52.020;4.714;2023-02-21T19:08:44;9.70;95.10
22787;DHT22;63134;52.020;4.714;2023-02-21T19:11:31;9.70;95.00
22787;DHT22;63134;52.020;4.714;2023-02-21T19:14:16;9.70;95.10
22787;DHT22;63134;52.020;4.714;2023-02-21T19:17:02;9.70;95.10
22787;DHT22;63134;52.020;4.714;2023-02-21T19:19:52;9.70;95.20
22787;DHT22;63134;52.020;4.714;2023-02-21T19:22:38;9.70;95.20
22787;DHT22;63134;52.020;4.714;2023-02-21T19:25:24;9.70;95.00
22787;DHT22;63134;52.020;4.714;2023-02-21T19:28:11;9.80;95.10
22787;DHT22;63134;52.020;4.714;2023-02-21T19:30:58;9.80;95.00
22787;DHT22;63134;52.020;4.714;2023-02-21T19:33:43;9.80;94.80
22787;DHT22;63134;52.020;4.714;2023-02-21T19:36:29;9.70;94.70
22787;DHT22;63134;52.020;4.714;2023-02-21T19:39:15;9.70;94.70
22787;DHT22;63134;52.020;4.714;2023-02-21T19:42:01;9.70;94.80
22787;DHT22;63134;52.020;4.714;2023-02-21T19:44:50;9.70;94.80
22787;DHT22;63134;52.020;4.714;2023-02-21T19:47:35;9.70;94.70
22787;DHT22;63134;52.020;4.714;2023-02-21T19:50:26;9.70;94.60
22787;DHT22;63134;52.020;4.714;2023-02-21T19:53:14;9.70;94.80
22787;DHT22;63134;52.020;4.714;2023-02-21T19:56:02;9.80;94.60
22787;DHT22;63134;52.020;4.714;2023-02-21T19:58:50;9.70;94.80
22787;DHT22;63134;52.020;4.714;2023-02-21T20:01:38;9.70;94.50
22787;DHT22;63134;52.020;4.714;2023-02-21T20:04:24;9.70;94.50
22787;DHT22;63134;52.020;4.714;2023-02-21T20:07:10;9.70;94.30
22787;DHT22;63134;52.020;4.714;2023-02-21T20:09:56;9.70;94.40
22787;DHT22;63134;52.020;4.714;2023-02-21T20:12:42;9.60;94.10
22787;DHT22;63134;52.020;4.714;2023-02-21T20:15:31;9.70;94.20
22787;DHT22;63134;52.020;4.714;2023-02-21T20:18:16;9.70;94.20
22787;DHT22;63134;52.020;4.714;2023-02-21T20:21:02;9.60;93.90
22787;DHT22;63134;52.020;4.714;2023-02-21T20:23:48;9.60;93.80
22787;DHT22;63134;52.020;4.714;2023-02-21T20:26:34;9.60;93.80
22787;DHT22;63134;52.020;4.714;2023-02-21T20:29:21;9.70;93.90
22787;DHT22;63134;52.020;4.714;2023-02-21T20:32:07;9.70;93.90
22787;DHT22;63134;52.020;4.714;2023-02-21T20:34:53;9.70;93.80
22787;DHT22;63134;52.020;4.714;2023-02-21T20:37:40;9.70;93.60
22787;DHT22;63134;52.020;4.714;2023-02-21T20:40:26;9.70;93.60
22787;DHT22;63134;52.020;4.714;2023-02-21T20:43:13;9.70;93.40